Terminal Aerodrome Forecast
Issued by NWS Paducah, KY

Home | Current Version | Previous Version | Text Only | Print | Product List | Glossary On
Versions: 1 2 3 4 5 6 7 8 9 10 11 12 13 14 15 16 17 18 19 20 21 22 23 24
000
FTUS43 KPAH 300520
TAFPAH
TAF
KPAH 300520Z 3006/3106 15008KT P6SM SCT035 BKN070
     FM301000 16008KT 3SM TSRA OVC030CB
     FM301300 17009KT 6SM -SHRA BR BKN025
     FM301600 19013G23KT P6SM SCT025 BKN250
     FM301900 20015G25KT 3SM TSRA OVC025CB
     FM302300 21012G20KT 6SM -SHRA BKN025
     FM310500 23010KT P6SM VCSH BKN015=

USA.gov is the U.S. government's official web portal to all federal, state and local government web resources and services.